createdAt,value
2023-04-09T00:01:13.873Z,38.77
2023-04-09T00:03:42.191Z,39.17
2023-04-09T00:06:10.477Z,39.07
2023-04-09T00:08:38.745Z,36.90
2023-04-09T00:11:08.330Z,35.60
2023-04-09T00:13:39.540Z,35.90
2023-04-09T00:16:08.607Z,31.30
2023-04-09T00:18:37.263Z,36.00
2023-04-09T00:21:05.793Z,36.10
2023-04-09T00:23:34.142Z,38.77
2023-04-09T00:26:02.661Z,38.17
2023-04-09T00:28:32.310Z,40.50
2023-04-09T00:31:00.593Z,37.23
2023-04-09T00:33:28.912Z,35.73
2023-04-09T00:35:57.211Z,35.93
2023-04-09T00:38:25.629Z,41.03
2023-04-09T00:40:53.844Z,34.37
2023-04-09T00:43:22.224Z,39.90
2023-04-09T00:45:52.060Z,38.00
2023-04-09T00:48:22.579Z,34.53
2023-04-09T00:50:50.876Z,41.40
2023-04-09T00:53:20.389Z,42.60
2023-04-09T00:55:48.735Z,36.20
2023-04-09T00:58:17.373Z,35.87
2023-04-09T01:00:45.701Z,38.93
2023-04-09T01:03:15.554Z,31.27
2023-04-09T01:05:49.737Z,42.63
2023-04-09T01:08:21.128Z,37.93
2023-04-09T01:10:52.561Z,42.40
2023-04-09T01:13:25.877Z,39.10
2023-04-09T01:15:56.219Z,44.30
2023-04-09T01:18:28.982Z,48.93
2023-04-09T01:20:59.859Z,44.10
2023-04-09T01:23:33.901Z,39.70
2023-04-09T01:26:05.495Z,34.63
2023-04-09T01:28:36.946Z,38.10
2023-04-09T01:31:07.899Z,42.30
2023-04-09T01:33:36.939Z,37.40
2023-04-09T01:36:06.369Z,41.37
2023-04-09T01:38:35.284Z,47.17
2023-04-09T01:41:05.013Z,45.77
2023-04-09T01:43:35.293Z,44.13
2023-04-09T01:46:04.252Z,38.40
2023-04-09T01:48:33.246Z,37.27
2023-04-09T01:51:01.668Z,47.97
2023-04-09T01:53:31.067Z,50.07
2023-04-09T01:56:01.230Z,43.03
2023-04-09T01:58:29.552Z,44.17
2023-04-09T02:01:03.093Z,41.23
2023-04-09T02:03:34.412Z,45.03
2023-04-09T02:06:08.268Z,45.20
2023-04-09T02:08:37.005Z,43.47
2023-04-09T02:11:06.780Z,43.37
2023-04-09T02:13:35.723Z,43.10
2023-04-09T02:16:06.056Z,41.33
2023-04-09T02:18:34.319Z,42.30
2023-04-09T02:21:02.567Z,38.70
2023-04-09T02:23:32.385Z,41.10
2023-04-09T02:26:00.990Z,39.70
2023-04-09T02:28:29.261Z,48.30
2023-04-09T02:30:58.023Z,39.13
2023-04-09T02:33:27.627Z,39.77
2023-04-09T02:35:55.882Z,42.00
2023-04-09T02:38:24.155Z,43.27
2023-04-09T02:40:52.362Z,41.43
2023-04-09T02:43:20.563Z,39.77
2023-04-09T02:45:48.794Z,40.97
2023-04-09T02:48:17.118Z,44.17
2023-04-09T02:50:46.762Z,37.27
2023-04-09T02:53:15.027Z,47.00
2023-04-09T02:55:43.243Z,37.80
2023-04-09T02:58:11.446Z,42.20
2023-04-09T03:00:39.942Z,41.50
2023-04-09T03:03:08.252Z,45.10
2023-04-09T03:05:36.791Z,46.37
2023-04-09T03:08:06.404Z,48.13
2023-04-09T03:10:34.681Z,52.77
2023-04-09T03:13:02.922Z,45.50
2023-04-09T03:15:31.233Z,46.27
2023-04-09T03:17:59.505Z,41.47
2023-04-09T03:20:27.760Z,46.63
2023-04-09T03:22:56.206Z,45.43
2023-04-09T03:25:25.807Z,52.23
2023-04-09T03:27:54.068Z,42.20
2023-04-09T03:30:22.302Z,44.77
2023-04-09T03:32:50.625Z,47.80
2023-04-09T03:35:18.919Z,53.30
2023-04-09T03:37:47.160Z,48.30
2023-04-09T03:40:15.829Z,51.10
2023-04-09T03:42:45.596Z,51.73
2023-04-09T03:45:13.766Z,49.00
2023-04-09T03:47:42.281Z,44.30
2023-04-09T03:50:10.956Z,48.83
2023-04-09T03:52:39.228Z,47.30
2023-04-09T03:55:07.895Z,49.20
2023-04-09T03:57:36.197Z,48.33
2023-04-09T04:00:06.174Z,47.90
2023-04-09T04:02:34.653Z,46.50
2023-04-09T04:05:02.987Z,53.90
2023-04-09T04:07:31.391Z,57.23
2023-04-09T04:09:59.657Z,52.33
2023-04-09T04:12:27.916Z,48.80
2023-04-09T04:14:56.116Z,48.00
2023-04-09T04:17:25.869Z,45.77
2023-04-09T04:19:54.131Z,46.20
2023-04-09T04:22:23.675Z,49.90
2023-04-09T04:24:53.111Z,51.90
2023-04-09T04:27:21.330Z,50.27
2023-04-09T04:29:49.534Z,51.40
2023-04-09T04:32:17.790Z,46.80
2023-04-09T04:34:50.181Z,47.57
2023-04-09T04:37:18.495Z,47.03
2023-04-09T04:39:46.719Z,44.83
2023-04-09T04:42:14.938Z,47.10
2023-04-09T04:44:43.154Z,45.10
2023-04-09T04:47:11.414Z,52.20
2023-04-09T04:49:39.613Z,47.20
2023-04-09T04:52:09.224Z,42.10
2023-04-09T04:54:37.485Z,46.87
2023-04-09T04:57:05.729Z,55.40
2023-04-09T04:59:33.949Z,55.47
2023-04-09T05:02:02.648Z,55.70
2023-04-09T05:04:30.981Z,50.97
2023-04-09T05:06:59.228Z,58.53
2023-04-09T05:09:28.915Z,45.77
2023-04-09T05:11:57.226Z,47.13
2023-04-09T05:14:25.458Z,41.17
2023-04-09T05:16:53.750Z,46.80
2023-04-09T05:19:21.966Z,43.47
2023-04-09T05:21:50.228Z,49.77
2023-04-09T05:24:18.485Z,42.40
2023-04-09T05:26:48.096Z,46.23
2023-04-09T05:29:19.437Z,33.90
2023-04-09T05:31:47.696Z,40.13
2023-04-09T05:34:16.003Z,40.00
2023-04-09T05:36:44.236Z,38.60
2023-04-09T05:39:12.475Z,43.17
2023-04-09T05:41:41.988Z,49.70
2023-04-09T05:44:11.568Z,42.27
2023-04-09T05:46:39.928Z,47.37
2023-04-09T05:49:08.456Z,46.53
2023-04-09T05:51:36.760Z,44.37
2023-04-09T05:54:05.409Z,54.77
2023-04-09T05:56:33.643Z,50.10
2023-04-09T05:59:01.921Z,52.80
2023-04-09T06:01:31.595Z,47.47
2023-04-09T06:04:00.255Z,50.20
2023-04-09T06:06:28.827Z,52.70
2023-04-09T06:08:57.090Z,54.13
2023-04-09T06:11:27.193Z,63.47
2023-04-09T06:13:55.571Z,63.33
2023-04-09T06:16:23.933Z,58.83
2023-04-09T06:18:54.642Z,61.70
2023-04-09T06:21:22.898Z,66.87
2023-04-09T06:23:53.540Z,53.27
2023-04-09T06:26:22.190Z,56.00
2023-04-09T06:28:50.409Z,57.87
2023-04-09T06:31:18.740Z,63.63
2023-04-09T06:33:47.023Z,56.27
2023-04-09T06:36:16.710Z,60.00
2023-04-09T06:38:44.918Z,58.90
2023-04-09T06:41:14.836Z,54.43
2023-04-09T06:43:43.075Z,65.80
2023-04-09T06:46:11.491Z,58.37
2023-04-09T06:48:39.869Z,52.87
2023-04-09T06:51:08.548Z,56.40
2023-04-09T06:53:38.300Z,52.43
2023-04-09T06:56:07.167Z,51.10
2023-04-09T06:58:35.550Z,56.13
2023-04-09T07:01:03.838Z,58.70
2023-04-09T07:03:32.399Z,47.80
2023-04-09T07:06:00.737Z,44.50
2023-04-09T07:08:29.052Z,47.27
2023-04-09T07:10:58.966Z,47.20
2023-04-09T07:16:00.395Z,56.00
2023-04-09T07:18:28.758Z,50.43
2023-04-09T07:20:57.177Z,51.50
2023-04-09T07:23:25.411Z,48.90
2023-04-09T07:25:53.883Z,47.53
2023-04-09T07:28:25.520Z,46.70
2023-04-09T07:30:53.916Z,49.00
2023-04-09T07:33:22.151Z,43.77
2023-04-09T07:35:50.511Z,43.30
2023-04-09T07:38:18.833Z,54.07
2023-04-09T07:40:47.313Z,43.87
2023-04-09T07:43:15.612Z,50.33
2023-04-09T07:45:45.907Z,45.80
2023-04-09T07:48:14.194Z,40.27
2023-04-09T07:50:44.747Z,44.70
2023-04-09T07:53:13.359Z,38.33
2023-04-09T07:55:42.275Z,35.40
2023-04-09T07:58:10.489Z,34.00
2023-04-09T08:00:38.800Z,35.47
2023-04-09T08:03:08.632Z,32.00
2023-04-09T08:05:37.997Z,26.57
2023-04-09T08:08:06.707Z,21.70
2023-04-09T08:10:35.003Z,20.90
2023-04-09T08:13:03.267Z,19.47
2023-04-09T08:15:31.587Z,19.53
2023-04-09T08:17:59.902Z,17.90
2023-04-09T08:20:29.863Z,13.03
2023-04-09T08:22:59.378Z,16.73
2023-04-09T08:25:27.946Z,14.73
2023-04-09T08:27:56.158Z,16.93
2023-04-09T08:30:24.462Z,16.00
2023-04-09T08:32:53.175Z,15.67
2023-04-09T08:35:21.494Z,11.77
2023-04-09T08:37:51.087Z,14.60
2023-04-09T08:40:19.517Z,12.53
2023-04-09T08:42:48.153Z,11.93
2023-04-09T08:45:17.118Z,11.00
2023-04-09T08:47:45.495Z,15.03
2023-04-09T08:50:16.134Z,12.70
2023-04-09T08:52:44.920Z,12.23
2023-04-09T08:55:14.572Z,11.60
2023-04-09T08:57:43.355Z,13.33
2023-04-09T09:00:12.348Z,10.53
2023-04-09T09:02:40.721Z,9.93
2023-04-09T09:05:09.262Z,11.43
2023-04-09T09:07:37.589Z,9.93
2023-04-09T09:10:05.989Z,12.17
2023-04-09T09:12:36.964Z,11.70
2023-04-09T09:15:05.633Z,9.70
2023-04-09T09:17:33.939Z,14.53
2023-04-09T09:20:20.334Z,10.43
2023-04-09T09:22:55.012Z,10.40
2023-04-09T09:25:25.609Z,10.83
2023-04-09T09:27:55.934Z,12.60
2023-04-09T09:30:24.737Z,14.63
2023-04-09T09:32:56.364Z,13.60
2023-04-09T09:35:24.733Z,12.67
2023-04-09T09:38:04.051Z,13.70
2023-04-09T09:40:32.579Z,8.93
2023-04-09T09:43:02.211Z,10.70
2023-04-09T09:45:30.991Z,10.23
2023-04-09T09:47:59.277Z,12.37
2023-04-09T09:50:28.619Z,10.90
2023-04-09T09:53:00.859Z,9.37
2023-04-09T09:55:29.483Z,11.47
2023-04-09T09:57:58.581Z,10.20
2023-04-09T10:00:28.951Z,9.87
2023-04-09T10:02:59.073Z,11.00
2023-04-09T10:05:28.901Z,9.00
2023-04-09T10:07:58.706Z,8.87
2023-04-09T10:10:27.545Z,9.93
2023-04-09T10:12:56.314Z,8.33
2023-04-09T10:15:24.937Z,6.60
2023-04-09T10:17:54.598Z,8.83
2023-04-09T10:20:28.837Z,10.07
2023-04-09T10:22:58.261Z,7.77
2023-04-09T10:25:26.993Z,9.97
2023-04-09T10:28:01.400Z,9.73
2023-04-09T10:30:35.907Z,9.33
2023-04-09T10:33:12.250Z,9.50
2023-04-09T10:35:40.708Z,9.30
2023-04-09T10:38:10.733Z,8.67
2023-04-09T10:40:42.511Z,7.90
2023-04-09T10:43:11.497Z,9.87
2023-04-09T10:45:43.129Z,8.53
2023-04-09T10:48:15.663Z,10.70
2023-04-09T10:50:45.072Z,9.93
2023-04-09T10:53:23.583Z,8.93
2023-04-09T10:55:52.789Z,10.67
2023-04-09T10:58:21.286Z,7.63
2023-04-09T11:00:50.379Z,8.40
2023-04-09T11:03:22.886Z,8.83
2023-04-09T11:05:53.514Z,8.53
2023-04-09T11:08:22.546Z,9.40
2023-04-09T11:10:52.333Z,10.00
2023-04-09T11:13:21.769Z,7.60
2023-04-09T11:15:50.121Z,7.40
2023-04-09T11:18:23.103Z,6.60
2023-04-09T11:20:51.664Z,7.20
2023-04-09T11:23:20.862Z,8.70
2023-04-09T11:25:50.764Z,7.63
2023-04-09T11:28:19.406Z,8.97
2023-04-09T11:30:47.856Z,7.00
2023-04-09T11:33:18.247Z,6.77
2023-04-09T11:35:49.563Z,5.60
2023-04-09T11:38:17.837Z,9.97
2023-04-09T11:40:49.286Z,6.80
2023-04-09T11:43:18.405Z,7.23
2023-04-09T11:45:48.712Z,9.20
2023-04-09T11:48:18.195Z,7.43
2023-04-09T11:50:46.704Z,8.60
2023-04-09T11:53:20.506Z,6.20
2023-04-09T11:55:49.568Z,8.00
2023-04-09T11:58:18.411Z,6.90
2023-04-09T12:00:46.715Z,6.87
2023-04-09T12:03:16.282Z,5.37
2023-04-09T12:05:50.651Z,7.60
2023-04-09T12:08:24.893Z,6.43
2023-04-09T12:10:54.195Z,7.40
2023-04-09T12:13:23.014Z,6.13
2023-04-09T12:15:52.514Z,7.43
2023-04-09T12:18:23.978Z,6.57
2023-04-09T12:20:52.234Z,11.47
2023-04-09T12:23:21.932Z,8.20
2023-04-09T12:25:50.236Z,7.00
2023-04-09T12:28:18.997Z,7.30
2023-04-09T12:30:48.977Z,7.63
2023-04-09T12:33:18.423Z,6.53
2023-04-09T12:35:46.664Z,7.27
2023-04-09T12:38:14.886Z,5.47
2023-04-09T12:40:44.574Z,6.00
2023-04-09T12:43:12.810Z,6.23
2023-04-09T12:45:41.146Z,6.03
2023-04-09T12:48:09.618Z,6.03
2023-04-09T12:50:38.024Z,5.30
2023-04-09T12:53:06.338Z,6.57
2023-04-09T12:55:34.620Z,5.60
2023-04-09T12:58:04.203Z,5.27
2023-04-09T13:00:33.467Z,6.30
2023-04-09T13:03:01.890Z,6.73
2023-04-09T13:05:31.491Z,5.90
2023-04-09T13:07:59.948Z,5.67
2023-04-09T13:10:28.484Z,6.03
2023-04-09T13:12:56.705Z,5.63
2023-04-09T13:15:29.270Z,6.53
2023-04-09T13:17:57.639Z,5.13
2023-04-09T13:20:26.225Z,4.60
2023-04-09T13:22:54.480Z,5.67
2023-04-09T13:25:22.787Z,7.37
2023-04-09T13:27:51.065Z,5.23
2023-04-09T13:30:19.419Z,4.90
2023-04-09T13:32:49.094Z,6.70
2023-04-09T13:35:19.007Z,6.90
2023-04-09T13:37:47.306Z,5.30
2023-04-09T13:40:16.303Z,5.53
2023-04-09T13:42:44.681Z,5.80
2023-04-09T13:45:13.091Z,6.67
2023-04-09T13:47:41.360Z,5.00
2023-04-09T13:50:13.157Z,5.63
2023-04-09T13:52:41.509Z,5.20
2023-04-09T13:55:11.539Z,4.73
2023-04-09T13:57:39.802Z,5.80
2023-04-09T14:00:09.010Z,5.73
2023-04-09T14:02:37.323Z,6.47
2023-04-09T14:05:06.004Z,6.03
2023-04-09T14:07:35.928Z,5.30
2023-04-09T14:10:04.290Z,6.30
2023-04-09T14:12:32.562Z,4.23
2023-04-09T14:15:00.895Z,5.93
2023-04-09T14:17:29.148Z,7.20
2023-04-09T14:19:57.973Z,5.60
2023-04-09T14:22:26.423Z,5.57
2023-04-09T14:24:56.117Z,5.43
2023-04-09T14:27:24.360Z,6.27
2023-04-09T14:29:53.176Z,7.63
2023-04-09T14:32:21.439Z,5.40
2023-04-09T14:34:49.639Z,6.90
2023-04-09T14:37:18.133Z,6.00
2023-04-09T14:39:46.380Z,5.00
2023-04-09T14:42:16.055Z,6.03
2023-04-09T14:44:44.302Z,6.67
2023-04-09T14:47:12.765Z,6.10
2023-04-09T14:49:40.998Z,4.93
2023-04-09T14:52:09.204Z,3.80
2023-04-09T14:54:37.868Z,6.57
2023-04-09T14:57:09.321Z,5.23
2023-04-09T14:59:39.142Z,5.67
2023-04-09T15:02:07.549Z,6.13
2023-04-09T15:04:35.882Z,5.50
2023-04-09T15:07:04.131Z,5.60
2023-04-09T15:09:32.672Z,5.93
2023-04-09T15:12:01.435Z,6.13
2023-04-09T15:14:30.687Z,6.73
2023-04-09T15:17:00.304Z,6.00
2023-04-09T15:19:28.546Z,5.97
2023-04-09T15:21:57.355Z,5.47
2023-04-09T15:24:25.690Z,5.27
2023-04-09T15:26:53.949Z,3.07
2023-04-09T15:29:22.308Z,7.17
2023-04-09T15:31:54.182Z,6.10
2023-04-09T15:34:25.782Z,4.20
2023-04-09T15:36:54.292Z,6.03
2023-04-09T15:39:24.596Z,4.90
2023-04-09T15:41:53.005Z,6.13
2023-04-09T15:44:21.352Z,7.73
2023-04-09T15:46:49.637Z,5.37
2023-04-09T15:49:18.061Z,4.87
2023-04-09T15:51:47.640Z,4.73
2023-04-09T15:54:15.987Z,4.83
2023-04-09T15:56:44.236Z,6.33
2023-04-09T15:59:12.458Z,5.60
2023-04-09T16:01:41.443Z,4.70
2023-04-09T16:04:10.480Z,5.90
2023-04-09T16:06:40.868Z,5.30
2023-04-09T16:09:10.453Z,5.30
2023-04-09T16:11:38.654Z,5.40
2023-04-09T16:14:07.307Z,5.47
2023-04-09T16:16:35.590Z,4.30
2023-04-09T16:19:03.913Z,4.90
2023-04-09T16:21:32.273Z,5.23
2023-04-09T16:24:00.716Z,5.67
2023-04-09T16:26:30.323Z,5.50
2023-04-09T16:29:02.993Z,4.10
2023-04-09T16:31:31.413Z,6.90
2023-04-09T16:33:59.715Z,5.47
2023-04-09T16:36:27.923Z,5.53
2023-04-09T16:38:56.334Z,5.30
2023-04-09T16:41:24.582Z,5.60
2023-04-09T16:43:54.239Z,7.83
2023-04-09T16:46:22.516Z,4.77
2023-04-09T16:48:50.985Z,5.30
2023-04-09T16:51:19.293Z,4.47
2023-04-09T16:53:47.595Z,5.50
2023-04-09T16:56:16.656Z,6.00
2023-04-09T16:58:44.998Z,5.50
2023-04-09T17:01:14.607Z,5.43
2023-04-09T17:03:43.035Z,6.07
2023-04-09T17:06:11.367Z,6.00
2023-04-09T17:08:39.578Z,5.00
2023-04-09T17:11:07.823Z,5.53
2023-04-09T17:13:36.719Z,4.13
2023-04-09T17:16:05.152Z,6.00
2023-04-09T17:18:34.722Z,6.30
2023-04-09T17:21:02.962Z,5.47
2023-04-09T17:23:31.275Z,7.03
2023-04-09T17:26:00.928Z,5.80
2023-04-09T17:28:29.265Z,7.40
2023-04-09T17:30:57.576Z,5.20
2023-04-09T17:33:26.036Z,6.43
2023-04-09T17:35:57.668Z,5.97
2023-04-09T17:38:27.012Z,5.03
2023-04-09T17:40:55.466Z,4.37
2023-04-09T17:43:23.740Z,5.57
2023-04-09T17:45:52.083Z,7.77
2023-04-09T17:48:20.521Z,6.97
2023-04-09T17:50:50.035Z,5.40
2023-04-09T17:53:19.674Z,5.10
2023-04-09T17:55:48.842Z,4.60
2023-04-09T17:58:17.229Z,6.20
2023-04-09T18:00:45.439Z,4.53
2023-04-09T18:03:13.921Z,6.33
2023-04-09T18:05:42.984Z,6.73
2023-04-09T18:08:11.488Z,6.50
2023-04-09T18:10:41.157Z,6.10
2023-04-09T18:13:09.662Z,7.20
2023-04-09T18:15:38.469Z,7.17
2023-04-09T18:18:06.837Z,6.27
2023-04-09T18:20:35.107Z,6.60
2023-04-09T18:23:03.295Z,8.10
2023-04-09T18:25:31.526Z,13.67
2023-04-09T18:28:01.114Z,10.93
2023-04-09T18:30:29.332Z,10.87
2023-04-09T18:32:57.651Z,8.73
2023-04-09T18:35:25.930Z,11.67
2023-04-09T18:37:54.204Z,11.80
2023-04-09T18:40:23.634Z,14.67
2023-04-09T18:42:52.799Z,12.50
2023-04-09T18:45:22.458Z,12.90
2023-04-09T18:47:50.763Z,10.07
2023-04-09T18:50:20.451Z,7.80
2023-04-09T18:52:48.689Z,9.60
2023-04-09T18:55:18.152Z,9.83
2023-04-09T18:57:47.284Z,8.40
2023-04-09T19:00:16.243Z,9.23
2023-04-09T19:02:46.289Z,9.77
2023-04-09T19:05:14.749Z,7.53
2023-04-09T19:07:43.492Z,8.70
2023-04-09T19:10:12.044Z,12.20
2023-04-09T19:12:46.903Z,8.77
2023-04-09T19:15:16.129Z,7.60
2023-04-09T19:17:45.787Z,8.50
2023-04-09T19:20:14.293Z,10.20
2023-04-09T19:22:42.555Z,11.50
2023-04-09T19:25:11.314Z,13.70
2023-04-09T19:27:40.344Z,12.83
2023-04-09T19:30:09.235Z,8.73
2023-04-09T19:32:37.511Z,11.17
2023-04-09T19:35:08.018Z,8.70
2023-04-09T19:37:36.358Z,9.77
2023-04-09T19:40:05.062Z,9.93
2023-04-09T19:42:33.769Z,12.70
2023-04-09T19:45:02.056Z,9.13
2023-04-09T19:47:30.388Z,7.60
2023-04-09T19:49:58.686Z,8.17
2023-04-09T19:52:28.325Z,7.13
2023-04-09T19:54:56.607Z,9.00
2023-04-09T19:57:26.570Z,7.70
2023-04-09T19:59:55.066Z,8.23
2023-04-09T20:02:23.853Z,6.30
2023-04-09T20:04:52.341Z,7.40
2023-04-09T20:07:20.644Z,8.00
2023-04-09T20:09:50.653Z,8.10
2023-04-09T20:12:23.792Z,9.03
2023-04-09T20:14:52.021Z,9.37
2023-04-09T20:17:21.158Z,7.20
2023-04-09T20:19:49.691Z,7.13
2023-04-09T20:22:18.037Z,8.33
2023-04-09T20:24:46.528Z,12.67
2023-04-09T20:27:16.087Z,8.83
2023-04-09T20:29:44.374Z,8.87
2023-04-09T20:32:13.217Z,8.10
2023-04-09T20:34:41.552Z,7.53
2023-04-09T20:37:09.857Z,7.67
2023-04-09T20:39:38.112Z,9.80
2023-04-09T20:42:06.446Z,8.87
2023-04-09T20:44:36.160Z,8.80
2023-04-09T20:47:04.431Z,7.93
2023-04-09T20:49:32.667Z,8.80
2023-04-09T20:52:00.960Z,10.33
2023-04-09T20:54:29.392Z,7.60
2023-04-09T20:56:57.922Z,7.60
2023-04-09T20:59:26.359Z,10.73
2023-04-09T21:01:56.092Z,8.67
2023-04-09T21:04:25.521Z,8.63
2023-04-09T21:06:53.858Z,9.10
2023-04-09T21:09:22.041Z,9.43
2023-04-09T21:11:50.360Z,8.37
2023-04-09T21:14:18.590Z,7.97
2023-04-09T21:16:46.876Z,7.60
2023-04-09T21:19:16.593Z,9.07
2023-04-09T21:21:44.833Z,8.57
2023-04-09T21:24:13.135Z,9.53
2023-04-09T21:26:50.807Z,9.27
2023-04-09T21:29:19.838Z,9.07
2023-04-09T21:31:48.164Z,9.83
2023-04-09T21:34:17.746Z,9.20
2023-04-09T21:36:46.185Z,9.03
2023-04-09T21:39:14.501Z,9.87
2023-04-09T21:41:42.742Z,9.70
2023-04-09T21:44:11.028Z,8.63
2023-04-09T21:46:40.489Z,10.47
2023-04-09T21:49:09.095Z,11.00
2023-04-09T21:51:38.762Z,11.87
2023-04-09T21:54:07.504Z,11.00
2023-04-09T21:56:35.965Z,10.57
2023-04-09T21:59:04.211Z,10.53
2023-04-09T22:01:33.368Z,9.73
2023-04-09T22:04:01.839Z,10.00
2023-04-09T22:06:30.959Z,8.43
2023-04-09T22:09:00.852Z,9.70
2023-04-09T22:11:29.735Z,10.80
2023-04-09T22:13:58.211Z,10.37
2023-04-09T22:16:26.620Z,10.67
2023-04-09T22:18:55.297Z,8.40
2023-04-09T22:21:23.732Z,11.00
2023-04-09T22:23:51.951Z,11.33
2023-04-09T22:26:21.892Z,10.60
2023-04-09T22:28:50.206Z,9.83
2023-04-09T22:31:19.159Z,10.60
2023-04-09T22:33:47.468Z,12.10
2023-04-09T22:36:15.718Z,10.40
2023-04-09T22:38:44.005Z,9.67
2023-04-09T22:41:12.226Z,11.27
2023-04-09T22:43:41.806Z,9.90
2023-04-09T22:46:10.116Z,11.97
2023-04-09T22:48:44.653Z,7.97
2023-04-09T22:51:23.840Z,6.90
2023-04-09T22:53:52.141Z,11.30
2023-04-09T22:56:21.534Z,8.60
2023-04-09T22:58:51.480Z,9.07
2023-04-09T23:01:22.093Z,10.50
2023-04-09T23:03:51.500Z,9.90
2023-04-09T23:06:19.857Z,7.90
2023-04-09T23:08:48.103Z,10.70
2023-04-09T23:11:16.402Z,9.23
2023-04-09T23:13:47.084Z,9.63
2023-04-09T23:16:16.760Z,8.10
2023-04-09T23:18:45.470Z,9.23
2023-04-09T23:21:13.783Z,8.33
2023-04-09T23:23:42.060Z,9.77
2023-04-09T23:26:10.371Z,9.30
2023-04-09T23:28:38.577Z,10.00
2023-04-09T23:31:07.135Z,9.20
2023-04-09T23:33:36.849Z,8.40
2023-04-09T23:36:05.405Z,9.10
2023-04-09T23:38:33.702Z,10.20
2023-04-09T23:41:01.877Z,10.47
2023-04-09T23:43:30.182Z,8.50
2023-04-09T23:45:58.445Z,8.80
2023-04-09T23:48:26.705Z,8.13
2023-04-09T23:50:56.390Z,8.53
2023-04-09T23:53:24.871Z,8.77
2023-04-09T23:55:53.229Z,6.80
2023-04-09T23:58:22.343Z,8.37
